createdAt,value
2023-03-22T00:01:21.884Z,70.45
2023-03-22T00:03:51.007Z,70.89
2023-03-22T00:06:18.351Z,70.12
2023-03-22T00:08:45.328Z,70.83
2023-03-22T00:11:15.961Z,70.99
2023-03-22T00:13:44.606Z,70.65
2023-03-22T00:16:11.495Z,70.18
2023-03-22T00:18:39.931Z,69.93
2023-03-22T00:21:12.335Z,69.88
2023-03-22T00:23:39.650Z,70.70
2023-03-22T00:26:07.949Z,70.44
2023-03-22T00:28:39.197Z,70.91
2023-03-22T00:31:06.751Z,70.83
2023-03-22T00:33:34.991Z,70.11
2023-03-22T00:36:10.361Z,70.50
2023-03-22T00:38:42.798Z,70.34
2023-03-22T00:41:21.282Z,70.06
2023-03-22T00:43:50.126Z,70.08
2023-03-22T00:46:19.400Z,70.72
2023-03-22T00:48:48.228Z,70.24
2023-03-22T00:51:15.781Z,69.34
2023-03-22T00:53:44.638Z,69.72
2023-03-22T00:56:12.731Z,68.70
2023-03-22T00:58:47.637Z,68.89
2023-03-22T01:01:16.781Z,68.62
2023-03-22T01:03:44.098Z,70.22
2023-03-22T01:06:15.122Z,69.12
2023-03-22T01:08:42.436Z,69.89
2023-03-22T01:11:10.175Z,70.35
2023-03-22T01:13:38.373Z,70.24
2023-03-22T01:16:06.422Z,69.81
2023-03-22T01:21:25.461Z,70.57
2023-03-22T01:23:52.604Z,70.72
2023-03-22T01:26:19.371Z,70.39
2023-03-22T01:28:46.358Z,70.51
2023-03-22T01:31:13.221Z,70.87
2023-03-22T01:33:40.219Z,70.05
2023-03-22T01:36:07.997Z,70.08
2023-03-22T01:38:35.613Z,70.69
2023-03-22T01:41:02.420Z,70.28
2023-03-22T01:46:23.637Z,71.21
2023-03-22T01:48:53.371Z,70.84
2023-03-22T01:51:24.285Z,71.14
2023-03-22T01:54:18.192Z,71.46
2023-03-22T01:56:45.894Z,71.47
2023-03-22T01:59:20.390Z,71.42
2023-03-22T02:02:04.768Z,71.94
2023-03-22T02:04:37.075Z,73.13
2023-03-22T02:07:14.857Z,72.20
2023-03-22T02:09:43.274Z,72.09
2023-03-22T02:12:50.709Z,72.02
2023-03-22T02:15:44.294Z,71.91
2023-03-22T02:18:54.010Z,72.21
2023-03-22T02:21:38.091Z,71.16
2023-03-22T02:24:20.865Z,70.23
2023-03-22T02:27:26.169Z,69.50
2023-03-22T02:30:20.838Z,69.45
2023-03-22T02:32:54.641Z,69.64
2023-03-22T02:35:46.389Z,70.17
2023-03-22T02:38:51.944Z,69.68
2023-03-22T02:42:10.042Z,70.18
2023-03-22T02:44:49.713Z,70.67
2023-03-22T02:47:26.116Z,70.92
2023-03-22T02:50:05.371Z,71.04
2023-03-22T02:52:40.912Z,71.16
2023-03-22T02:55:28.960Z,72.12
2023-03-22T02:58:20.426Z,71.95
2023-03-22T03:00:50.781Z,71.88
2023-03-22T03:03:21.275Z,70.61
2023-03-22T03:05:54.341Z,72.28
2023-03-22T03:08:24.025Z,72.37
2023-03-22T03:10:52.715Z,72.64
2023-03-22T03:13:20.030Z,72.60
2023-03-22T03:15:52.695Z,72.50
2023-03-22T03:18:28.891Z,72.92
2023-03-22T03:21:06.677Z,73.20
2023-03-22T03:24:00.766Z,73.34
2023-03-22T03:27:01.900Z,73.30
2023-03-22T03:29:50.501Z,73.04
2023-03-22T03:32:26.927Z,74.08
2023-03-22T03:35:03.990Z,73.31
2023-03-22T03:37:49.004Z,73.29
2023-03-22T03:40:30.932Z,73.72
2023-03-22T03:43:01.892Z,73.43
2023-03-22T03:45:30.851Z,73.31
2023-03-22T03:48:01.957Z,74.52
2023-03-22T03:50:30.150Z,73.71
2023-03-22T03:53:00.947Z,74.16
2023-03-22T03:55:30.841Z,73.90
2023-03-22T03:57:57.676Z,73.34
2023-03-22T04:00:24.580Z,73.26
2023-03-22T04:03:09.909Z,73.26
2023-03-22T04:05:49.967Z,73.21
2023-03-22T04:08:17.466Z,73.52
2023-03-22T04:10:49.711Z,73.41
2023-03-22T04:13:20.016Z,73.65
2023-03-22T04:15:54.224Z,73.99
2023-03-22T04:18:22.103Z,73.78
2023-03-22T04:20:48.911Z,73.89
2023-03-22T04:23:16.861Z,73.85
2023-03-22T04:25:46.040Z,73.49
2023-03-22T04:28:25.894Z,73.36
2023-03-22T04:30:53.482Z,74.36
2023-03-22T04:33:46.958Z,74.38
2023-03-22T04:36:24.591Z,74.42
2023-03-22T04:39:12.746Z,74.58
2023-03-22T04:41:43.599Z,74.48
2023-03-22T04:44:10.625Z,74.64
2023-03-22T04:46:44.069Z,74.86
2023-03-22T04:49:35.827Z,74.91
2023-03-22T04:52:03.399Z,75.21
2023-03-22T04:54:35.238Z,74.79
2023-03-22T04:57:02.778Z,74.82
2023-03-22T04:59:35.195Z,74.78
2023-03-22T05:02:02.642Z,75.21
2023-03-22T05:04:38.097Z,75.25
2023-03-22T05:07:14.130Z,74.88
2023-03-22T05:09:47.926Z,75.21
2023-03-22T05:12:16.867Z,75.26
2023-03-22T05:15:07.265Z,75.39
2023-03-22T05:17:37.669Z,75.68
2023-03-22T05:20:06.133Z,75.69
2023-03-22T05:22:33.883Z,75.54
2023-03-22T05:25:00.865Z,75.79
2023-03-22T05:27:27.583Z,76.31
2023-03-22T05:29:56.893Z,76.21
2023-03-22T05:32:31.371Z,75.87
2023-03-22T05:35:00.225Z,76.19
2023-03-22T05:37:34.980Z,76.98
2023-03-22T05:40:02.868Z,77.25
2023-03-22T05:42:37.160Z,77.15
2023-03-22T05:45:15.647Z,77.08
2023-03-22T05:47:49.148Z,76.51
2023-03-22T05:50:23.320Z,77.11
2023-03-22T05:52:51.121Z,77.11
2023-03-22T05:55:36.971Z,77.99
2023-03-22T05:58:05.459Z,77.07
2023-03-22T06:00:35.677Z,76.61
2023-03-22T06:03:28.152Z,77.82
2023-03-22T06:06:00.819Z,76.78
2023-03-22T06:08:42.205Z,76.21
2023-03-22T06:11:09.246Z,76.20
2023-03-22T06:13:37.731Z,75.61
2023-03-22T06:16:12.034Z,75.40
2023-03-22T06:18:39.096Z,75.27
2023-03-22T06:21:10.704Z,75.32
2023-03-22T06:23:38.984Z,75.55
2023-03-22T06:26:08.799Z,76.07
2023-03-22T06:28:36.430Z,76.22
2023-03-22T06:31:09.243Z,77.20
2023-03-22T06:33:48.959Z,75.97
2023-03-22T06:36:25.132Z,75.66
2023-03-22T06:39:11.161Z,75.58
2023-03-22T06:41:40.600Z,74.88
2023-03-22T06:44:09.921Z,75.16
2023-03-22T06:47:04.605Z,74.91
2023-03-22T06:50:03.003Z,74.53
2023-03-22T06:52:53.642Z,78.13
2023-03-22T06:55:23.092Z,75.78
2023-03-22T06:57:49.901Z,76.79
2023-03-22T07:00:17.121Z,76.65
2023-03-22T07:02:44.972Z,75.65
2023-03-22T07:05:27.382Z,73.28
2023-03-22T07:07:58.056Z,73.38
2023-03-22T07:10:26.533Z,72.55
2023-03-22T07:12:53.404Z,71.98
2023-03-22T07:18:34.007Z,70.17
2023-03-22T07:21:02.565Z,69.88
2023-03-22T07:23:29.780Z,68.62
2023-03-22T07:26:21.997Z,67.93
2023-03-22T07:28:50.336Z,69.95
2023-03-22T07:31:18.858Z,69.62
2023-03-22T07:34:06.604Z,68.30
2023-03-22T07:36:42.751Z,67.13
2023-03-22T07:39:12.016Z,66.12
2023-03-22T07:41:44.052Z,63.57
2023-03-22T07:44:28.954Z,65.97
2023-03-22T07:47:37.799Z,65.62
2023-03-22T07:50:19.943Z,64.78
2023-03-22T07:52:51.416Z,64.53
2023-03-22T07:55:18.840Z,63.93
2023-03-22T07:57:46.905Z,63.09
2023-03-22T08:00:14.957Z,63.38
2023-03-22T08:02:58.991Z,61.75
2023-03-22T08:05:43.484Z,61.81
2023-03-22T08:08:15.073Z,60.83
2023-03-22T08:10:42.559Z,60.92
2023-03-22T08:13:09.314Z,59.82
2023-03-22T08:15:36.355Z,59.12
2023-03-22T08:18:03.383Z,59.47
2023-03-22T08:20:35.282Z,58.67
2023-03-22T08:23:08.040Z,58.84
2023-03-22T08:25:58.455Z,57.79
2023-03-22T08:28:26.967Z,56.27
2023-03-22T08:30:53.889Z,57.05
2023-03-22T08:33:22.237Z,58.07
2023-03-22T08:35:52.056Z,58.18
2023-03-22T08:38:20.435Z,56.34
2023-03-22T08:40:51.518Z,56.75
2023-03-22T08:43:23.334Z,56.65
2023-03-22T08:45:50.693Z,56.63
2023-03-22T08:48:19.959Z,55.30
2023-03-22T08:51:07.941Z,54.21
2023-03-22T08:53:53.561Z,53.52
2023-03-22T08:56:43.318Z,53.35
2023-03-22T08:59:40.373Z,52.47
2023-03-22T09:02:33.495Z,52.66
2023-03-22T09:05:01.360Z,52.31
2023-03-22T09:07:28.412Z,51.69
2023-03-22T09:10:10.957Z,51.06
2023-03-22T09:12:43.020Z,51.76
2023-03-22T09:15:10.390Z,51.69
2023-03-22T09:17:40.364Z,52.16
2023-03-22T09:20:13.143Z,52.49
2023-03-22T09:22:46.176Z,51.32
2023-03-22T09:25:16.403Z,50.98
2023-03-22T09:27:46.835Z,51.59
2023-03-22T09:30:13.922Z,50.37
2023-03-22T09:32:40.893Z,51.57
2023-03-22T09:35:10.422Z,50.75
2023-03-22T09:37:48.179Z,51.28
2023-03-22T09:40:16.203Z,50.14
2023-03-22T09:42:48.521Z,51.79
2023-03-22T09:45:20.622Z,51.04
2023-03-22T09:47:55.006Z,50.72
2023-03-22T09:50:26.532Z,50.71
